createdAt,value
2022-12-31T00:00:39.550Z,8.77
2022-12-31T00:03:08.250Z,8.85
2022-12-31T00:05:37.933Z,8.77
2022-12-31T00:08:05.940Z,8.87
2022-12-31T00:10:39.936Z,8.87
2022-12-31T00:13:08.065Z,8.83
2022-12-31T00:15:36.315Z,8.85
2022-12-31T00:18:04.239Z,8.88
2022-12-31T00:20:32.026Z,8.89
2022-12-31T00:23:01.475Z,8.95
2022-12-31T00:25:29.307Z,8.88
2022-12-31T00:27:57.034Z,9.01
2022-12-31T00:30:24.796Z,9.15
2022-12-31T00:32:52.633Z,9.16
2022-12-31T00:35:20.414Z,9.32
2022-12-31T00:37:48.255Z,9.25
2022-12-31T00:40:17.508Z,9.61
2022-12-31T00:42:45.418Z,9.63
2022-12-31T00:45:13.283Z,9.57
2022-12-31T00:47:41.011Z,9.63
2022-12-31T00:50:09.651Z,9.87
2022-12-31T00:52:37.564Z,9.80
2022-12-31T00:55:06.057Z,9.85
2022-12-31T00:57:35.196Z,9.86
2022-12-31T01:00:03.016Z,9.98
2022-12-31T01:02:30.969Z,9.83
2022-12-31T01:04:58.849Z,9.85
2022-12-31T01:07:26.559Z,9.87
2022-12-31T01:09:54.439Z,9.73
2022-12-31T01:12:22.167Z,9.59
2022-12-31T01:14:51.297Z,9.46
2022-12-31T01:17:19.120Z,9.33
2022-12-31T01:19:46.881Z,9.26
2022-12-31T01:22:14.627Z,9.16
2022-12-31T01:24:42.676Z,9.23
2022-12-31T01:27:11.746Z,9.20
2022-12-31T01:29:39.456Z,9.16
2022-12-31T01:32:08.690Z,9.14
2022-12-31T01:34:36.409Z,9.22
2022-12-31T01:37:04.191Z,9.24
2022-12-31T01:39:31.931Z,9.29
2022-12-31T01:41:59.765Z,9.30
2022-12-31T01:44:51.799Z,9.44
2022-12-31T01:47:43.520Z,9.40
2022-12-31T01:50:15.731Z,9.40
2022-12-31T01:52:47.233Z,9.32
2022-12-31T01:55:20.107Z,9.32
2022-12-31T01:57:50.760Z,9.26
2022-12-31T02:00:18.935Z,9.16
2022-12-31T02:02:48.296Z,9.08
2022-12-31T02:05:24.334Z,9.17
2022-12-31T02:07:54.443Z,8.95
2022-12-31T02:10:22.206Z,9.15
2022-12-31T02:12:50.227Z,9.18
2022-12-31T02:15:18.559Z,9.19
2022-12-31T02:17:59.477Z,9.08
2022-12-31T02:20:49.648Z,9.39
2022-12-31T02:23:41.093Z,9.45
2022-12-31T02:26:38.374Z,9.64
2022-12-31T02:29:33.253Z,9.59
2022-12-31T02:32:08.331Z,9.63
2022-12-31T02:34:39.702Z,9.71
2022-12-31T02:37:12.014Z,9.78
2022-12-31T02:39:42.025Z,9.79
2022-12-31T02:42:11.431Z,9.83
2022-12-31T02:44:40.915Z,9.81
2022-12-31T02:47:22.858Z,9.81
2022-12-31T02:50:06.320Z,9.84
2022-12-31T02:52:44.932Z,9.84
2022-12-31T02:55:19.930Z,9.83
2022-12-31T02:57:53.795Z,9.83
2022-12-31T03:00:39.600Z,9.93
2022-12-31T03:03:09.410Z,9.93
2022-12-31T03:05:40.228Z,10.04
2022-12-31T03:08:08.117Z,10.01
2022-12-31T03:10:36.686Z,10.03
2022-12-31T03:13:03.845Z,10.02
2022-12-31T03:15:33.949Z,10.03
2022-12-31T03:18:05.120Z,10.06
2022-12-31T03:20:54.441Z,10.04
2022-12-31T03:23:24.301Z,9.99
2022-12-31T03:25:51.210Z,9.99
2022-12-31T03:28:21.289Z,9.97
2022-12-31T03:30:52.648Z,10.03
2022-12-31T03:33:21.617Z,10.07
2022-12-31T03:35:51.605Z,10.04
2022-12-31T03:38:20.442Z,9.89
2022-12-31T03:40:50.903Z,9.96
2022-12-31T03:43:20.219Z,9.97
2022-12-31T03:45:49.706Z,9.99
2022-12-31T03:48:17.499Z,10.08
2022-12-31T03:50:45.837Z,10.15
2022-12-31T03:53:15.499Z,10.26
2022-12-31T03:55:43.312Z,10.22
2022-12-31T03:58:11.201Z,10.20
2022-12-31T04:00:39.026Z,10.16
2022-12-31T04:03:06.973Z,10.16
2022-12-31T04:05:35.051Z,10.13
2022-12-31T04:08:03.052Z,10.24
2022-12-31T04:10:32.291Z,10.19
2022-12-31T04:13:02.493Z,10.21
2022-12-31T04:15:30.307Z,10.22
2022-12-31T04:17:58.014Z,10.23
2022-12-31T04:20:25.891Z,10.30
2022-12-31T04:22:54.090Z,10.38
2022-12-31T04:25:21.870Z,10.30
2022-12-31T04:27:50.946Z,10.24
2022-12-31T04:30:18.711Z,10.62
2022-12-31T04:32:46.474Z,10.52
2022-12-31T04:35:14.256Z,10.49
2022-12-31T04:37:42.043Z,10.43
2022-12-31T04:40:10.618Z,10.35
2022-12-31T04:42:38.536Z,10.38
2022-12-31T04:45:09.053Z,10.42
2022-12-31T04:47:36.823Z,10.35
2022-12-31T04:50:05.181Z,10.39
2022-12-31T04:52:38.599Z,10.37
2022-12-31T04:55:10.452Z,10.43
2022-12-31T04:57:38.263Z,10.35
2022-12-31T05:00:09.122Z,10.38
2022-12-31T05:02:37.578Z,10.46
2022-12-31T05:05:06.126Z,10.45
2022-12-31T05:07:33.877Z,10.41
2022-12-31T05:10:01.593Z,10.45
2022-12-31T05:12:29.707Z,10.46
2022-12-31T05:14:57.513Z,10.43
2022-12-31T05:17:26.648Z,10.34
2022-12-31T05:19:54.432Z,10.40
2022-12-31T05:22:30.980Z,10.46
2022-12-31T05:25:00.298Z,10.45
2022-12-31T05:27:31.255Z,10.45
2022-12-31T05:29:59.464Z,10.41
2022-12-31T05:32:28.727Z,10.35
2022-12-31T05:34:56.870Z,10.32
2022-12-31T05:37:24.732Z,10.40
2022-12-31T05:39:52.652Z,10.42
2022-12-31T05:42:20.666Z,10.54
2022-12-31T05:44:48.517Z,10.56
2022-12-31T05:47:16.986Z,10.37
2022-12-31T05:49:46.231Z,10.44
2022-12-31T05:52:14.011Z,10.37
2022-12-31T05:54:41.880Z,10.28
2022-12-31T05:57:10.017Z,10.33
2022-12-31T05:59:37.926Z,10.27
2022-12-31T06:02:06.129Z,10.29
2022-12-31T06:04:34.079Z,10.17
2022-12-31T06:07:03.420Z,10.05
2022-12-31T06:09:31.205Z,9.94
2022-12-31T06:11:58.994Z,9.85
2022-12-31T06:14:26.747Z,9.73
2022-12-31T06:16:54.491Z,9.68
2022-12-31T06:19:22.226Z,9.63
2022-12-31T06:21:50.067Z,9.60
2022-12-31T06:24:19.499Z,9.53
2022-12-31T06:26:47.315Z,9.52
2022-12-31T06:29:15.103Z,9.39
2022-12-31T06:31:42.890Z,9.38
2022-12-31T06:34:12.538Z,9.24
2022-12-31T06:36:40.345Z,9.14
2022-12-31T06:39:08.622Z,8.94
2022-12-31T06:41:38.235Z,8.78
2022-12-31T06:44:06.468Z,8.79
2022-12-31T06:46:34.318Z,8.76
2022-12-31T06:49:02.098Z,8.83
2022-12-31T06:51:29.912Z,8.76
2022-12-31T06:53:57.775Z,8.71
2022-12-31T06:56:34.020Z,8.71
2022-12-31T06:59:05.284Z,8.77
2022-12-31T07:01:50.421Z,8.77
2022-12-31T07:05:10.010Z,9.03
2022-12-31T07:07:49.722Z,9.09
2022-12-31T07:10:30.043Z,9.17
2022-12-31T07:13:24.904Z,9.29
2022-12-31T07:16:04.047Z,9.39
2022-12-31T07:18:41.344Z,9.34
2022-12-31T07:21:12.929Z,9.32
2022-12-31T07:23:41.481Z,9.30
2022-12-31T07:26:20.978Z,9.16
2022-12-31T07:28:59.590Z,9.27
2022-12-31T07:31:44.183Z,9.30
2022-12-31T07:34:20.716Z,9.15
2022-12-31T07:37:02.346Z,9.17
2022-12-31T07:39:49.466Z,9.15
2022-12-31T07:42:23.627Z,9.42
2022-12-31T07:44:59.982Z,9.54
2022-12-31T07:47:29.900Z,9.27
2022-12-31T07:49:58.580Z,9.22
2022-12-31T07:52:27.488Z,9.09
2022-12-31T07:54:55.318Z,9.13
2022-12-31T07:57:32.270Z,9.16
2022-12-31T08:00:07.783Z,9.14
2022-12-31T08:03:01.009Z,9.17
2022-12-31T08:05:34.727Z,9.26
2022-12-31T08:08:16.064Z,9.29
2022-12-31T08:10:52.535Z,9.52
2022-12-31T08:13:21.594Z,9.39
2022-12-31T08:15:49.935Z,9.28
2022-12-31T08:18:19.688Z,9.21
2022-12-31T08:20:54.312Z,9.13
2022-12-31T08:23:29.528Z,9.13
2022-12-31T08:26:12.339Z,9.32
2022-12-31T08:28:55.135Z,9.42
2022-12-31T08:31:28.696Z,9.68
2022-12-31T08:34:06.456Z,10.22
2022-12-31T08:36:43.056Z,10.38
2022-12-31T08:39:25.145Z,10.99
2022-12-31T08:41:56.192Z,11.06
2022-12-31T08:44:33.234Z,11.50
2022-12-31T08:47:10.736Z,11.77
2022-12-31T08:49:40.819Z,12.13
2022-12-31T08:52:16.831Z,12.26
2022-12-31T08:54:45.571Z,12.25
2022-12-31T08:57:23.383Z,12.14
2022-12-31T09:00:03.481Z,12.11
2022-12-31T09:02:48.226Z,12.36
2022-12-31T09:05:24.247Z,12.46
2022-12-31T09:08:05.017Z,12.04
2022-12-31T09:10:40.053Z,11.68
2022-12-31T09:13:16.445Z,11.61
2022-12-31T09:15:52.729Z,11.54
2022-12-31T09:18:21.078Z,11.67
2022-12-31T09:20:50.780Z,11.69
2022-12-31T09:23:19.063Z,11.52
2022-12-31T09:25:56.551Z,11.41
2022-12-31T09:28:37.855Z,11.24
2022-12-31T09:31:12.886Z,11.20
2022-12-31T09:33:48.567Z,11.21
2022-12-31T09:36:23.327Z,11.14
2022-12-31T09:38:56.550Z,11.14
2022-12-31T09:41:55.828Z,10.97
2022-12-31T09:45:01.845Z,10.92
2022-12-31T09:47:57.499Z,10.89
2022-12-31T09:50:51.209Z,10.87
2022-12-31T09:53:40.315Z,11.06
2022-12-31T09:56:16.826Z,11.17
2022-12-31T09:58:52.026Z,11.29
2022-12-31T10:01:39.283Z,11.37
2022-12-31T10:04:39.816Z,11.55
2022-12-31T10:07:25.706Z,11.78
2022-12-31T10:10:05.312Z,11.89
2022-12-31T10:13:09.449Z,11.81
2022-12-31T10:16:06.236Z,11.77
2022-12-31T10:18:56.584Z,11.92
2022-12-31T10:21:44.259Z,11.79
2022-12-31T10:24:30.328Z,11.79
2022-12-31T10:27:14.125Z,11.89
2022-12-31T10:29:48.004Z,11.99
2022-12-31T10:32:20.313Z,12.07
2022-12-31T10:35:13.617Z,12.03
2022-12-31T10:37:49.690Z,12.13
2022-12-31T10:40:32.234Z,12.25
2022-12-31T10:43:30.750Z,12.22
2022-12-31T10:46:29.116Z,12.27
2022-12-31T10:49:35.249Z,12.34
2022-12-31T10:52:42.063Z,12.69
2022-12-31T10:55:42.749Z,12.77
2022-12-31T10:58:46.771Z,13.00
2022-12-31T11:01:21.044Z,13.08
2022-12-31T11:04:05.992Z,13.30
2022-12-31T11:07:10.274Z,13.47
2022-12-31T11:10:03.960Z,13.81
2022-12-31T11:12:53.690Z,13.85
2022-12-31T11:15:50.328Z,14.21
2022-12-31T11:18:31.532Z,14.36
2022-12-31T11:21:21.615Z,14.46
2022-12-31T11:24:00.402Z,13.99
2022-12-31T11:26:42.564Z,14.45
2022-12-31T11:29:19.077Z,14.42
2022-12-31T11:32:07.559Z,14.14
2022-12-31T11:35:04.446Z,14.32
2022-12-31T11:37:45.464Z,14.45
2022-12-31T11:40:39.047Z,14.53
2022-12-31T11:43:21.102Z,13.96
2022-12-31T11:46:02.995Z,13.98
2022-12-31T11:48:37.659Z,14.22
2022-12-31T11:51:33.629Z,14.22
2022-12-31T11:54:43.794Z,14.61
2022-12-31T11:57:19.037Z,14.98
2022-12-31T11:59:47.389Z,15.00
2022-12-31T12:02:27.089Z,15.07
2022-12-31T12:04:58.216Z,15.18
2022-12-31T12:07:28.110Z,15.37
2022-12-31T12:09:57.042Z,15.29
2022-12-31T12:12:24.882Z,15.67
2022-12-31T12:14:54.791Z,15.64
2022-12-31T12:17:32.115Z,15.57
2022-12-31T12:20:04.710Z,15.75
2022-12-31T12:22:33.768Z,15.67
2022-12-31T12:25:06.525Z,15.80
2022-12-31T12:27:36.670Z,15.95
2022-12-31T12:30:12.618Z,16.01
2022-12-31T12:32:40.474Z,15.65
2022-12-31T12:35:16.249Z,15.82
2022-12-31T12:37:45.427Z,15.91
2022-12-31T12:40:22.043Z,15.70
2022-12-31T12:42:50.311Z,16.01
2022-12-31T12:45:20.454Z,15.84
2022-12-31T12:47:52.275Z,15.79
2022-12-31T12:50:23.044Z,15.83
2022-12-31T12:53:09.344Z,15.96
2022-12-31T12:55:47.764Z,15.74
2022-12-31T12:58:30.605Z,15.77
2022-12-31T13:01:07.665Z,15.71
2022-12-31T13:07:17.629Z,15.00
2022-12-31T13:10:03.254Z,15.23
2022-12-31T13:13:13.617Z,15.35
2022-12-31T13:15:33.704Z,15.31
2022-12-31T13:18:14.094Z,15.41
2022-12-31T13:20:49.180Z,15.10
2022-12-31T13:23:24.340Z,15.22
2022-12-31T13:26:06.784Z,15.04
2022-12-31T13:28:36.952Z,14.86
2022-12-31T13:31:10.358Z,14.60
2022-12-31T13:33:42.872Z,14.48
2022-12-31T13:36:15.256Z,14.29
2022-12-31T13:38:47.059Z,14.14
2022-12-31T13:41:20.015Z,14.20
2022-12-31T13:43:54.901Z,14.19
2022-12-31T13:46:33.722Z,14.11
2022-12-31T13:49:05.922Z,14.04
2022-12-31T13:51:42.491Z,13.83
2022-12-31T13:54:23.163Z,13.69
2022-12-31T13:56:53.765Z,13.62
2022-12-31T13:59:28.390Z,13.69
2022-12-31T14:02:03.009Z,13.77
2022-12-31T14:04:38.254Z,13.83
2022-12-31T14:07:11.673Z,13.65
2022-12-31T14:09:39.568Z,13.42
2022-12-31T14:12:33.549Z,13.30
2022-12-31T14:15:11.953Z,13.54
2022-12-31T14:17:47.645Z,13.56
2022-12-31T14:20:23.982Z,13.49
2022-12-31T14:22:59.964Z,13.39
2022-12-31T14:25:33.083Z,13.22
2022-12-31T14:28:04.189Z,13.28
2022-12-31T14:30:35.985Z,13.29
2022-12-31T14:33:20.171Z,13.20
2022-12-31T14:35:57.012Z,13.08
2022-12-31T14:38:36.889Z,13.08
2022-12-31T14:41:15.206Z,12.97
2022-12-31T14:43:55.835Z,12.91
2022-12-31T14:46:30.984Z,12.77
2022-12-31T14:49:09.138Z,12.80
2022-12-31T14:51:38.363Z,12.65
2022-12-31T14:54:06.222Z,12.54
2022-12-31T14:56:42.279Z,12.54
2022-12-31T14:59:27.779Z,12.49
2022-12-31T15:01:56.871Z,12.51
2022-12-31T15:04:33.582Z,12.46
2022-12-31T15:07:12.185Z,12.63
2022-12-31T15:09:57.708Z,12.55
2022-12-31T15:12:47.703Z,12.51
2022-12-31T15:15:43.887Z,12.37
2022-12-31T15:18:28.808Z,12.44
2022-12-31T15:21:14.720Z,12.34
2022-12-31T15:23:43.927Z,12.25
2022-12-31T15:26:23.690Z,12.20
2022-12-31T15:29:00.908Z,12.09
2022-12-31T15:31:31.835Z,12.04
2022-12-31T15:34:02.039Z,11.92
2022-12-31T15:36:32.323Z,11.79
2022-12-31T15:39:25.586Z,11.95
2022-12-31T15:44:50.314Z,11.83
2022-12-31T15:47:29.350Z,11.76
2022-12-31T15:50:00.491Z,11.70
2022-12-31T15:52:36.732Z,11.79
2022-12-31T15:55:06.809Z,11.73
2022-12-31T15:57:42.595Z,11.63
2022-12-31T16:00:18.277Z,11.56
2022-12-31T16:02:48.776Z,11.58
2022-12-31T16:05:24.614Z,11.51
2022-12-31T16:07:55.107Z,11.47
2022-12-31T16:10:26.558Z,11.47
2022-12-31T16:12:55.180Z,11.74
2022-12-31T16:15:25.874Z,11.68
2022-12-31T16:18:05.853Z,12.12
2022-12-31T16:20:35.579Z,12.93
2022-12-31T16:23:04.436Z,12.82
2022-12-31T16:25:33.942Z,13.11
2022-12-31T16:28:03.944Z,13.29
2022-12-31T16:30:33.761Z,13.33
2022-12-31T16:33:04.991Z,13.10
2022-12-31T16:35:34.346Z,13.60
2022-12-31T16:38:13.192Z,13.45
2022-12-31T16:40:42.111Z,13.70
2022-12-31T16:43:28.829Z,13.56
2022-12-31T16:45:59.052Z,13.44
2022-12-31T16:48:28.435Z,13.37
2022-12-31T16:50:57.402Z,13.72
2022-12-31T16:53:27.588Z,13.68
2022-12-31T16:55:58.302Z,13.43
2022-12-31T16:58:30.337Z,13.19
2022-12-31T17:01:02.127Z,13.68
2022-12-31T17:03:31.528Z,13.80
2022-12-31T17:06:14.484Z,13.62
2022-12-31T17:08:44.598Z,13.55
2022-12-31T17:11:26.196Z,13.56
2022-12-31T17:13:56.345Z,13.57
2022-12-31T17:16:24.574Z,13.64
2022-12-31T17:18:53.971Z,13.88
2022-12-31T17:21:26.141Z,13.77
2022-12-31T17:23:56.781Z,13.47
2022-12-31T17:26:27.831Z,13.23
2022-12-31T17:28:57.617Z,13.17
2022-12-31T17:31:35.075Z,13.16
2022-12-31T17:34:21.233Z,13.21
2022-12-31T17:37:00.210Z,13.27
2022-12-31T17:39:39.839Z,13.10
2022-12-31T17:42:10.399Z,13.18
2022-12-31T17:44:40.510Z,12.89
2022-12-31T17:47:11.757Z,12.77
2022-12-31T17:49:44.878Z,12.70
2022-12-31T17:52:14.691Z,12.53
2022-12-31T17:54:42.874Z,12.33
2022-12-31T17:57:24.545Z,12.38
2022-12-31T17:59:52.447Z,12.13
2022-12-31T18:02:20.409Z,11.93
2022-12-31T18:04:50.918Z,11.76
2022-12-31T18:07:18.753Z,11.68
2022-12-31T18:09:46.591Z,11.24
2022-12-31T18:12:16.172Z,11.79
2022-12-31T18:14:47.317Z,11.94
2022-12-31T18:17:16.719Z,12.17
2022-12-31T18:22:34.132Z,12.52
2022-12-31T18:25:02.392Z,12.63
2022-12-31T18:27:30.649Z,12.48
2022-12-31T18:30:04.251Z,12.16
2022-12-31T18:32:34.058Z,11.91
2022-12-31T18:35:02.079Z,11.63
2022-12-31T18:37:30.798Z,11.54
2022-12-31T18:39:59.989Z,11.28
2022-12-31T18:42:28.919Z,11.04
2022-12-31T18:44:56.861Z,10.76
2022-12-31T18:47:24.614Z,10.61
2022-12-31T18:49:52.459Z,10.63
2022-12-31T18:52:22.604Z,10.55
2022-12-31T18:54:50.682Z,10.42
2022-12-31T18:57:19.967Z,10.41
2022-12-31T18:59:47.767Z,9.84
2022-12-31T19:02:20.079Z,9.82
2022-12-31T19:04:48.637Z,9.54
2022-12-31T19:07:16.418Z,9.66
2022-12-31T19:09:45.934Z,9.67
2022-12-31T19:12:15.869Z,9.68
2022-12-31T19:14:45.613Z,9.73
2022-12-31T19:17:13.542Z,9.74
2022-12-31T19:19:41.486Z,9.74
2022-12-31T19:22:14.700Z,9.81
2022-12-31T19:24:42.553Z,9.71
2022-12-31T19:27:11.142Z,9.49
2022-12-31T19:29:38.977Z,9.38
2022-12-31T19:32:09.526Z,9.26
2022-12-31T19:34:37.411Z,9.03
2022-12-31T19:37:05.295Z,9.01
2022-12-31T19:39:33.193Z,8.99
2022-12-31T19:42:01.090Z,8.93
2022-12-31T19:44:28.925Z,8.97
2022-12-31T19:46:56.678Z,8.92
2022-12-31T19:49:26.052Z,9.05
2022-12-31T19:51:53.879Z,8.95
2022-12-31T19:54:21.740Z,8.17
2022-12-31T19:56:49.600Z,8.78
2022-12-31T19:59:17.399Z,8.81
2022-12-31T20:01:46.353Z,8.89
2022-12-31T20:04:14.401Z,8.88
2022-12-31T20:06:43.678Z,8.83
2022-12-31T20:09:12.324Z,8.80
2022-12-31T20:11:40.258Z,8.69
2022-12-31T20:14:08.196Z,8.59
2022-12-31T20:16:36.138Z,8.49
2022-12-31T20:19:04.052Z,8.51
2022-12-31T20:21:31.866Z,8.43
2022-12-31T20:24:01.090Z,8.48
2022-12-31T20:26:29.035Z,8.33
2022-12-31T20:28:58.036Z,8.32
2022-12-31T20:31:27.455Z,8.32
2022-12-31T20:33:56.175Z,8.32
2022-12-31T20:36:24.278Z,8.44
2022-12-31T20:38:52.117Z,8.40
2022-12-31T20:41:23.551Z,8.57
2022-12-31T20:43:51.859Z,8.64
2022-12-31T20:46:21.767Z,8.53
2022-12-31T20:48:51.596Z,8.47
2022-12-31T20:51:20.904Z,8.32
2022-12-31T20:53:49.763Z,8.49
2022-12-31T20:56:18.123Z,8.41
2022-12-31T20:58:47.378Z,8.40
2022-12-31T21:01:16.841Z,8.45
2022-12-31T21:06:34.979Z,9.12
2022-12-31T21:09:05.791Z,9.06
2022-12-31T21:11:51.257Z,9.33
2022-12-31T21:14:20.421Z,9.54
2022-12-31T21:16:48.661Z,10.01
2022-12-31T21:19:16.491Z,10.49
2022-12-31T21:21:44.293Z,10.77
2022-12-31T21:24:12.411Z,10.61
2022-12-31T21:26:40.226Z,11.61
2022-12-31T21:29:08.044Z,12.65
2022-12-31T21:31:37.157Z,12.57
2022-12-31T21:34:04.979Z,12.37
2022-12-31T21:36:32.801Z,13.24
2022-12-31T21:39:00.763Z,13.02
2022-12-31T21:41:51.174Z,13.68
2022-12-31T21:44:20.823Z,13.47
2022-12-31T21:47:24.818Z,13.36
2022-12-31T21:49:38.579Z,13.55
2022-12-31T21:52:24.102Z,13.55
2022-12-31T21:55:09.151Z,13.20
2022-12-31T21:57:59.015Z,13.21
2022-12-31T22:00:43.237Z,13.50
2022-12-31T22:03:27.955Z,13.52
2022-12-31T22:05:59.227Z,13.82
2022-12-31T22:08:28.134Z,13.89
2022-12-31T22:10:56.127Z,14.10
2022-12-31T22:13:24.387Z,14.01
2022-12-31T22:16:00.288Z,14.30
2022-12-31T22:18:35.839Z,14.27
2022-12-31T22:21:09.626Z,14.36
2022-12-31T22:23:42.748Z,14.69
2022-12-31T22:26:13.768Z,14.43
2022-12-31T22:28:43.202Z,14.42
2022-12-31T22:31:14.633Z,14.20
2022-12-31T22:33:44.319Z,14.16
2022-12-31T22:36:13.841Z,13.62
2022-12-31T22:38:42.425Z,13.26
2022-12-31T22:41:13.830Z,13.48
2022-12-31T22:43:43.317Z,13.56
2022-12-31T22:46:12.876Z,13.69
2022-12-31T22:48:41.915Z,13.31
2022-12-31T22:51:12.867Z,12.89
2022-12-31T22:53:41.248Z,12.76
2022-12-31T22:56:09.981Z,12.56
2022-12-31T22:58:38.172Z,12.18
2022-12-31T23:01:07.267Z,11.80
2022-12-31T23:03:35.592Z,11.57
2022-12-31T23:06:03.619Z,11.08
2022-12-31T23:08:32.827Z,10.86
2022-12-31T23:11:00.581Z,10.84
2022-12-31T23:13:50.496Z,10.69
2022-12-31T23:16:36.479Z,10.71
2022-12-31T23:19:21.953Z,10.69
2022-12-31T23:22:07.188Z,10.60
2022-12-31T23:24:36.834Z,10.40
2022-12-31T23:27:05.149Z,10.25
2022-12-31T23:29:32.972Z,10.16
2022-12-31T23:32:00.931Z,10.15
2022-12-31T23:34:28.792Z,10.37
2022-12-31T23:36:56.616Z,10.66
2022-12-31T23:39:24.442Z,10.71
2022-12-31T23:41:53.560Z,11.01
2022-12-31T23:44:21.574Z,11.36
2022-12-31T23:46:49.481Z,12.10
2022-12-31T23:49:17.327Z,11.78
2022-12-31T23:51:45.547Z,11.77
2022-12-31T23:54:14.895Z,11.94
2022-12-31T23:56:42.778Z,11.88
2022-12-31T23:59:12.782Z,11.90
